Auburn, Missouri
Current Conditions -  °F | °C
As of 2:54 PM on Tuesday 21 Oct 2014 (Local Time) from KSET Reporting Station
Clear Clear  
Wind Chill: 66°   Ceiling: Unl
Heat Index: 66°   Visibility: 10mi
Dew Point: 45°   Wind: 9mph
Humidity: 47%   Direction: 30°NNE
Pressure: 30.11"   Gusts: NA
Location:  39.1646°N, 90.8436°W
Report Text: KSET 211954Z AUTO 03008KT 10SM CLR 19/07 A3011 RMK AO2 SLP195 T01890072 $
Loading
Personal Weather Stations






























Interactive Weather Map
Tropical Storm Tracking
New forecast layout! Learn more

10-Day Weather Forecast

Advertisements
Track Severe Weather on mobile